createdAt,value
2018-11-05T00:01:35.106Z,73.27
2018-11-05T00:06:19.138Z,72.48
2018-11-05T00:11:02.054Z,71.84
2018-11-05T00:15:45.243Z,72.08
2018-11-05T00:20:28.189Z,72.18
2018-11-05T00:25:13.899Z,71.67
2018-11-05T00:29:56.786Z,71.79
2018-11-05T00:34:40.780Z,70.38
2018-11-05T00:39:23.674Z,70.61
2018-11-05T00:44:07.027Z,70.68
2018-11-05T00:48:49.904Z,69.87
2018-11-05T00:53:32.819Z,71.01
2018-11-05T00:58:15.690Z,70.52
2018-11-05T01:02:59.609Z,70.83
2018-11-05T01:07:43.436Z,70.86
2018-11-05T01:12:27.455Z,70.63
2018-11-05T01:17:10.390Z,71.86
2018-11-05T01:21:55.600Z,71.55
2018-11-05T01:26:38.467Z,71.44
2018-11-05T01:31:21.382Z,71.28
2018-11-05T01:36:04.489Z,71.29
2018-11-05T01:40:47.385Z,69.96
2018-11-05T01:45:30.432Z,70.90
2018-11-05T01:50:15.010Z,70.76
2018-11-05T01:54:57.976Z,71.25
2018-11-05T01:59:40.836Z,71.50
2018-11-05T02:04:23.759Z,70.30
2018-11-05T02:09:08.070Z,70.84
2018-11-05T02:13:52.097Z,70.68
2018-11-05T02:18:34.992Z,71.56
2018-11-05T02:23:19.110Z,71.42
2018-11-05T02:28:01.959Z,70.79
2018-11-05T02:32:45.299Z,69.58
2018-11-05T02:37:28.208Z,71.04
2018-11-05T02:42:12.385Z,72.03
2018-11-05T02:46:55.297Z,71.10
2018-11-05T02:51:38.168Z,70.48
2018-11-05T02:56:21.043Z,70.48
2018-11-05T03:01:03.959Z,70.86
2018-11-05T03:05:47.102Z,70.34
2018-11-05T03:10:29.978Z,69.16
2018-11-05T03:15:14.324Z,69.53
2018-11-05T03:19:57.248Z,70.15
2018-11-05T03:24:41.238Z,69.96
2018-11-05T03:29:24.450Z,68.11
2018-11-05T03:34:07.496Z,68.32
2018-11-05T03:38:50.431Z,68.92
2018-11-05T03:43:33.483Z,68.64
2018-11-05T03:48:16.361Z,68.31
2018-11-05T03:53:00.271Z,68.19
2018-11-05T03:57:43.187Z,68.17
2018-11-05T04:02:26.341Z,69.59
2018-11-05T04:07:09.212Z,67.27
2018-11-05T04:11:53.134Z,68.19
2018-11-05T04:16:36.012Z,66.56
2018-11-05T04:21:26.963Z,67.07
2018-11-05T04:26:09.882Z,67.08
2018-11-05T04:30:52.794Z,66.81
2018-11-05T04:35:36.702Z,67.10
2018-11-05T04:40:19.593Z,67.23
2018-11-05T04:45:02.586Z,66.66
2018-11-05T04:49:45.478Z,66.97
2018-11-05T04:54:28.518Z,67.16
2018-11-05T04:59:11.429Z,67.18
2018-11-05T05:03:54.499Z,66.34
2018-11-05T05:08:37.417Z,66.74
2018-11-05T05:13:22.360Z,67.07
2018-11-05T05:18:05.426Z,66.75
2018-11-05T05:22:48.456Z,67.26
2018-11-05T05:27:31.267Z,66.44
2018-11-05T05:32:15.154Z,66.81
2018-11-05T05:36:58.056Z,67.50
2018-11-05T05:41:42.009Z,66.78
2018-11-05T05:46:24.873Z,67.52
2018-11-05T05:51:08.987Z,67.90
2018-11-05T05:55:51.868Z,67.82
2018-11-05T06:00:34.734Z,68.05
2018-11-05T06:05:17.662Z,69.47
2018-11-05T06:10:00.550Z,69.11
2018-11-05T06:14:43.779Z,68.94
2018-11-05T06:19:26.654Z,68.58
2018-11-05T06:24:09.674Z,68.05
2018-11-05T06:28:52.575Z,69.36
2018-11-05T06:33:35.727Z,69.21
2018-11-05T06:38:18.650Z,68.63
2018-11-05T06:43:02.789Z,68.83
2018-11-05T06:47:46.066Z,68.40
2018-11-05T06:52:30.043Z,68.17
2018-11-05T06:57:12.943Z,67.61
2018-11-05T07:01:56.907Z,67.91
2018-11-05T07:06:39.837Z,68.10
2018-11-05T07:11:22.947Z,66.55
2018-11-05T07:16:05.850Z,66.99
2018-11-05T07:20:49.915Z,66.91
2018-11-05T07:25:32.855Z,67.23
2018-11-05T07:30:18.414Z,65.79
2018-11-05T07:35:02.431Z,65.87
2018-11-05T07:39:45.304Z,65.60
2018-11-05T07:44:28.442Z,65.07
2018-11-05T07:49:11.348Z,65.47
2018-11-05T07:53:55.501Z,64.03
2018-11-05T07:58:38.388Z,62.39
2018-11-05T08:03:22.248Z,62.07
2018-11-05T08:08:06.080Z,61.80
2018-11-05T08:12:53.415Z,61.07
2018-11-05T08:17:36.274Z,61.24
2018-11-05T08:22:22.469Z,58.54
2018-11-05T08:27:06.268Z,58.35
2018-11-05T08:31:49.670Z,58.29
2018-11-05T08:36:33.110Z,57.47
2018-11-05T08:41:17.150Z,58.27
2018-11-05T08:46:00.066Z,57.48
2018-11-05T08:50:44.307Z,59.42
2018-11-05T08:55:27.756Z,59.94
2018-11-05T09:00:16.321Z,60.62
2018-11-05T09:04:59.212Z,57.93
2018-11-05T09:09:42.545Z,58.95
2018-11-05T09:14:25.455Z,58.36
2018-11-05T09:19:08.393Z,58.09
2018-11-05T09:23:52.239Z,58.23
2018-11-05T09:28:35.158Z,58.85
2018-11-05T09:33:19.039Z,56.42
2018-11-05T09:38:01.912Z,55.35
2018-11-05T09:42:48.912Z,55.56
2018-11-05T09:47:31.706Z,56.63
2018-11-05T09:52:15.717Z,53.70
2018-11-05T09:56:58.602Z,54.88
2018-11-05T10:01:43.498Z,53.26
2018-11-05T10:06:26.822Z,51.55
2018-11-05T10:11:10.829Z,52.35
2018-11-05T10:15:53.710Z,52.12
2018-11-05T10:20:39.921Z,51.66
2018-11-05T10:25:22.839Z,50.71
2018-11-05T10:30:10.973Z,52.13
2018-11-05T10:34:53.855Z,52.31
2018-11-05T10:39:36.745Z,52.32
2018-11-05T10:44:19.697Z,52.30
2018-11-05T10:49:02.611Z,51.91
2018-11-05T10:53:46.501Z,52.21
2018-11-05T10:58:29.424Z,52.70
2018-11-05T11:03:16.625Z,51.12
2018-11-05T11:08:00.440Z,52.03
2018-11-05T11:12:44.421Z,52.87
2018-11-05T11:17:27.290Z,52.17
2018-11-05T11:22:11.311Z,52.96
2018-11-05T11:26:54.196Z,51.98
2018-11-05T11:31:37.610Z,52.60
2018-11-05T11:36:20.558Z,53.08
2018-11-05T11:41:03.562Z,53.17
2018-11-05T11:45:46.448Z,52.26
2018-11-05T11:50:29.636Z,52.22
2018-11-05T11:55:14.393Z,54.44
2018-11-05T11:59:57.264Z,53.34
2018-11-05T12:04:41.167Z,54.54
2018-11-05T12:09:24.315Z,54.02
2018-11-05T12:14:07.570Z,54.30
2018-11-05T12:18:50.391Z,55.10
2018-11-05T12:23:34.346Z,55.10
2018-11-05T12:28:17.247Z,55.24
2018-11-05T12:33:03.347Z,55.74
2018-11-05T12:37:47.507Z,56.28
2018-11-05T12:42:33.581Z,56.24
2018-11-05T12:47:16.534Z,55.92
2018-11-05T12:52:01.611Z,57.19
2018-11-05T12:56:44.488Z,58.18
2018-11-05T13:01:31.900Z,59.63
2018-11-05T13:06:14.799Z,58.78
2018-11-05T13:10:58.761Z,58.90
2018-11-05T13:15:41.687Z,60.68
2018-11-05T13:20:24.906Z,60.42
2018-11-05T13:25:07.858Z,60.90
2018-11-05T13:29:54.534Z,61.54
2018-11-05T13:34:37.420Z,62.46
2018-11-05T13:39:20.291Z,61.80
2018-11-05T13:44:03.403Z,61.84
2018-11-05T13:48:47.050Z,62.07
2018-11-05T13:53:32.371Z,64.84
2018-11-05T13:58:15.288Z,64.61
2018-11-05T14:03:01.512Z,65.33
2018-11-05T14:07:44.480Z,66.00
2018-11-05T14:12:28.341Z,67.41
2018-11-05T14:17:11.222Z,67.18
2018-11-05T14:21:55.337Z,67.72
2018-11-05T14:26:38.212Z,70.43
2018-11-05T14:31:22.209Z,68.84
2018-11-05T14:36:05.158Z,68.31
2018-11-05T14:40:48.154Z,69.12
2018-11-05T14:45:31.860Z,68.77
2018-11-05T14:50:17.159Z,69.66
2018-11-05T14:55:00.046Z,68.32
2018-11-05T14:59:46.602Z,67.30
2018-11-05T15:04:29.482Z,67.24
2018-11-05T15:09:13.033Z,66.99
2018-11-05T15:13:55.993Z,67.23
2018-11-05T15:18:38.927Z,67.72
2018-11-05T15:23:22.766Z,67.01
2018-11-05T15:28:05.742Z,67.12
2018-11-05T15:32:49.924Z,67.29
2018-11-05T15:37:32.790Z,68.44
2018-11-05T15:42:16.919Z,66.51
2018-11-05T15:46:59.807Z,66.50
2018-11-05T15:51:44.891Z,66.50
2018-11-05T15:56:28.523Z,66.63
2018-11-05T16:01:15.274Z,66.20
2018-11-05T16:05:58.191Z,67.24
2018-11-05T16:10:41.107Z,66.71
2018-11-05T16:15:24.056Z,66.92
2018-11-05T16:20:11.115Z,67.66
2018-11-05T16:24:54.011Z,67.39
2018-11-05T16:29:37.012Z,67.79
2018-11-05T16:34:19.899Z,68.20
2018-11-05T16:39:04.211Z,67.17
2018-11-05T16:43:47.209Z,67.08
2018-11-05T16:48:31.439Z,68.76
2018-11-05T16:53:16.270Z,68.40
2018-11-05T16:57:59.257Z,67.13
2018-11-05T17:02:44.954Z,68.11
2018-11-05T17:07:27.737Z,67.82
2018-11-05T17:12:12.736Z,67.79
2018-11-05T17:16:55.687Z,69.51
2018-11-05T17:21:40.772Z,68.64
2018-11-05T17:26:23.765Z,69.15
2018-11-05T17:31:12.136Z,70.13
2018-11-05T17:35:55.061Z,69.42
2018-11-05T17:40:39.194Z,68.09
2018-11-05T17:45:22.237Z,68.08
2018-11-05T17:50:07.199Z,67.97
2018-11-05T17:54:50.135Z,69.28
2018-11-05T17:59:34.864Z,68.02
2018-11-05T18:04:17.762Z,68.47
2018-11-05T18:09:01.117Z,67.70
2018-11-05T18:13:44.328Z,68.97
2018-11-05T18:18:27.556Z,67.98
2018-11-05T18:23:14.824Z,69.57
2018-11-05T18:27:57.771Z,68.79
2018-11-05T18:32:42.743Z,68.82
2018-11-05T18:37:25.692Z,69.35
2018-11-05T18:42:11.458Z,68.49
2018-11-05T18:46:54.411Z,68.80
2018-11-05T18:51:38.604Z,69.34
2018-11-05T18:56:21.555Z,69.27
2018-11-05T19:01:05.260Z,68.76
2018-11-05T19:05:48.994Z,68.71
2018-11-05T19:10:32.850Z,69.06
2018-11-05T19:15:16.984Z,68.56
2018-11-05T19:20:01.051Z,69.81
2018-11-05T19:24:44.555Z,70.57
2018-11-05T19:29:28.520Z,70.75
2018-11-05T19:34:11.723Z,69.88
2018-11-05T19:38:54.789Z,70.33
2018-11-05T19:43:38.873Z,71.26
2018-11-05T19:48:21.777Z,70.22
2018-11-05T19:58:15.307Z,71.92
2018-11-05T20:03:00.623Z,72.01
2018-11-05T20:07:44.275Z,72.71
2018-11-05T20:12:28.283Z,71.55
2018-11-05T20:17:11.210Z,72.45
2018-11-05T20:21:54.284Z,72.96
2018-11-05T20:26:37.217Z,72.71
2018-11-05T20:31:20.565Z,73.02
2018-11-05T20:36:03.264Z,72.01
2018-11-05T20:40:46.427Z,73.24
2018-11-05T20:45:29.339Z,73.45
2018-11-05T20:50:14.310Z,74.02
2018-11-05T20:54:57.201Z,72.38
2018-11-05T20:59:43.492Z,71.95
2018-11-05T21:04:26.398Z,73.76
2018-11-05T21:09:11.661Z,74.65
2018-11-05T21:13:54.647Z,74.88
2018-11-05T21:18:37.536Z,75.44
2018-11-05T21:23:20.483Z,75.93
2018-11-05T21:28:03.394Z,74.63
2018-11-05T21:32:47.584Z,74.71
2018-11-05T21:37:30.424Z,77.26
2018-11-05T21:42:14.591Z,78.40
2018-11-05T21:46:57.486Z,77.83
2018-11-05T21:51:40.583Z,76.85
2018-11-05T21:56:23.461Z,77.53
2018-11-05T22:01:09.899Z,77.96
2018-11-05T22:05:54.858Z,78.05
2018-11-05T22:10:38.007Z,78.52
2018-11-05T22:15:20.982Z,78.46
2018-11-05T22:20:04.771Z,78.61
2018-11-05T22:24:47.647Z,79.68
2018-11-05T22:29:30.544Z,79.29
2018-11-05T22:35:43.629Z,79.69
2018-11-05T22:40:26.704Z,80.29
2018-11-05T22:45:10.997Z,79.36
2018-11-05T22:49:54.002Z,79.43
2018-11-05T22:54:36.922Z,79.86
2018-11-05T22:59:23.566Z,79.04
2018-11-05T23:04:06.498Z,80.34
2018-11-05T23:08:49.614Z,80.52
2018-11-05T23:13:32.466Z,79.92
2018-11-05T23:18:15.383Z,81.08
2018-11-05T23:22:58.286Z,81.54
2018-11-05T23:36:39.861Z,81.03
2018-11-05T23:41:22.878Z,81.15
2018-11-05T23:46:05.961Z,82.15
2018-11-05T23:50:52.766Z,80.95
2018-11-05T23:55:35.664Z,80.76
